Poltava, Ukraine
Current Conditions -  °F | °C
As of 4:30 PM on Monday 20 Oct 2014 (Local Time) from UKHH Reporting Station
Broken Clouds Broken Clouds  
Wind Chill: 55°   Ceiling: 4000
Heat Index: 55°   Visibility: 6mi
Dew Point: 41°   Wind: 20mph
Humidity: 58%   Direction: 250°WSW
Pressure: 29.68"   Gusts: NA
Location:  49.58°N, 34.57°E
Report Text: UKHH 201330Z 25009MPS 220V280 9999 BKN040 BKN100 13/05 Q1005 250///65 TEMPO 21013G18MPS
Loading
Personal Weather Stations






























Interactive Weather Map
Tropical Storm Tracking
New forecast layout! Learn more

10-Day Weather Forecast

Advertisements
Track Severe Weather on mobile